Decoded Metar for KBNA (NASHVILLE in TN, USA) (IATA:BNA) | Meteo·Mobile Aviation Weather
aviador You're here:

KBNA Decoded Metar

NASHVILLE in TN, USA
Report Time2019-06-18 13:53:00
UTC Time2019-06-18 14:57:39
Flight Rules ifr IFR
Wind160° at 03 kt
W.Decomp.*RWY 13: 2.5 kt HW 1.6 kt RCW
RWY 20: 2.4 kt HW 1.8 kt LCW
Visibility9999 m
Phenomena:N/A
Clouds:Overcast 008 Hf
Expected CloudBase > 800 ft AGL from Temp-Dew spread
Ceiling800 ft
Temp23°C (ISA +9)
Dew Point21°C (89% RH)
QNH1016 hPa
Density Alt2,008 ft
Elevation689 ft
Report Wrong Elevation
Raw Report
METAR KBNA 181353Z 16003KT 10SM OVC008 23/21 A2999 RMK AO2 SLP150 T02280206=

Extra information for KBNA:More info

Metar Taf Metar & Taf Last 4 Metars F.Rules Stats Wind Profile Meteogram Temp Stats Airport Information Weather charts Add Link Nearby VenuesMetar ALERT Operation Metar Decoded Social comments

AIRNAV info for KBNA